Time;durP1;ratioP1;P1;durP2;ratioP2;P2;SDS_P1;SDS_P2;PMS_P1;PMS_P2;Temp;Humidity;BMP_temperature;BMP_pressure;BME280_temperature;BME280_humidity;BME280_pressure;Samples;Min_cycle;Max_cycle;Signal;HPM_P1;HPM_P2
2023/12/12 00:01:50;;;;;;;1999.90;999.90;;;5.40;99.90;;;;;;5069929;28;20418;-82
2023/12/12 00:04:16;;;;;;;1999.90;999.90;;;5.50;99.80;;;;;;5050974;28;20091;-85
2023/12/12 00:06:42;;;;;;;1999.90;999.90;;;5.60;99.90;;;;;;5064284;28;20074;-85
2023/12/12 00:09:08;;;;;;;1999.90;999.90;;;5.60;99.70;;;;;;5082472;28;20137;-84
2023/12/12 00:11:33;;;;;;;1999.90;999.90;;;5.60;99.70;;;;;;5068921;28;20131;-82
2023/12/12 00:13:59;;;;;;;1999.90;999.90;;;5.60;99.50;;;;;;5070132;28;20028;-83
2023/12/12 00:16:25;;;;;;;1999.90;999.90;;;5.70;99.70;;;;;;5068252;28;20024;-85
2023/12/12 00:18:50;;;;;;;1999.90;999.90;;;5.70;99.60;;;;;;5070723;28;20520;-82
2023/12/12 00:21:16;;;;;;;1999.90;999.90;;;5.80;99.60;;;;;;5053131;28;20029;-82
2023/12/12 00:23:41;;;;;;;1999.90;999.90;;;5.90;99.50;;;;;;5053522;28;20558;-82
2023/12/12 00:26:07;;;;;;;1999.90;999.90;;;5.90;99.20;;;;;;5064217;28;20379;-84
2023/12/12 00:28:34;;;;;;;1999.90;999.90;;;5.90;99.10;;;;;;5063933;28;20380;-82
2023/12/12 00:31:00;;;;;;;1999.90;999.90;;;6.00;99.30;;;;;;5068889;28;20036;-84
2023/12/12 00:33:26;;;;;;;1999.90;999.90;;;6.00;99.10;;;;;;5067056;28;20038;-83
2023/12/12 00:35:52;;;;;;;1999.90;999.90;;;6.00;99.10;;;;;;5069109;28;20033;-83
2023/12/12 00:38:17;;;;;;;1999.90;999.90;;;6.00;98.90;;;;;;5070742;28;20025;-82
2023/12/12 00:40:53;;;;;;;1999.90;999.90;;;5.90;99.00;;;;;;5066771;28;21451;-82
2023/12/12 00:43:19;;;;;;;1999.90;999.90;;;5.70;98.70;;;;;;5066326;28;20033;-81
2023/12/12 00:45:45;;;;;;;1999.90;999.90;;;5.60;98.80;;;;;;5073357;28;20843;-82
2023/12/12 00:48:10;;;;;;;1999.90;999.90;;;5.60;98.90;;;;;;5053559;28;20135;-86
2023/12/12 00:50:36;;;;;;;1999.90;999.90;;;5.60;99.10;;;;;;5067407;28;20067;-83
2023/12/12 00:53:02;;;;;;;1999.90;999.90;;;5.50;99.20;;;;;;5068173;28;20639;-84
2023/12/12 00:55:28;;;;;;;1999.90;999.90;;;5.40;99.00;;;;;;5070922;28;20090;-83
2023/12/12 00:57:54;;;;;;;1999.90;999.90;;;5.40;99.30;;;;;;5065868;28;20596;-85
2023/12/12 01:00:20;;;;;;;1999.90;999.90;;;5.40;99.40;;;;;;5067610;28;20755;-82
2023/12/12 01:02:45;;;;;;;1999.90;999.90;;;5.20;99.10;;;;;;5071140;28;20505;-82
2023/12/12 01:05:11;;;;;;;1999.90;999.90;;;5.20;99.40;;;;;;5067803;28;20020;-86
2023/12/12 01:07:37;;;;;;;1999.90;999.90;;;5.10;99.30;;;;;;5068478;28;20032;-81
2023/12/12 01:10:02;;;;;;;1999.90;999.90;;;5.10;99.50;;;;;;5052099;28;20645;-84
2023/12/12 01:12:28;;;;;;;1999.90;999.90;;;5.10;99.50;;;;;;5071274;28;20064;-85
2023/12/12 01:14:58;;;;;;;1999.90;999.90;;;5.00;99.30;;;;;;5070132;28;20107;-83
2023/12/12 01:17:25;;;;;;;1999.90;999.90;;;5.00;99.70;;;;;;5052520;28;20043;-84
2023/12/12 01:19:51;;;;;;;1999.90;999.90;;;5.00;99.80;;;;;;5068438;28;20095;-86
2023/12/12 01:22:17;;;;;;;1999.90;999.90;;;5.00;99.80;;;;;;5071024;28;20037;-86
2023/12/12 01:24:42;;;;;;;1999.90;999.90;;;5.00;99.80;;;;;;5070813;28;20048;-84
2023/12/12 01:27:09;;;;;;;1999.90;999.90;;;4.90;99.90;;;;;;5068124;28;20033;-84
2023/12/12 01:29:35;;;;;;;1999.90;999.90;;;4.90;99.90;;;;;;5068398;28;20035;-84
2023/12/12 01:32:01;;;;;;;1999.90;999.90;;;5.00;99.90;;;;;;5071308;28;20029;-86
2023/12/12 01:34:27;;;;;;;1999.90;999.90;;;5.00;99.90;;;;;;5053181;28;20107;-83
2023/12/12 01:36:53;;;;;;;1999.90;999.90;;;4.90;99.90;;;;;;5073298;28;20036;-85
2023/12/12 01:39:18;;;;;;;1999.90;999.90;;;5.00;99.90;;;;;;5070921;28;20115;-84
2023/12/12 01:41:50;;;;;;;1999.90;999.90;;;5.10;99.90;;;;;;5071073;28;20078;-83
2023/12/12 01:44:16;;;;;;;1999.90;999.90;;;5.10;99.90;;;;;;5071968;28;20210;-85
2023/12/12 01:46:47;;;;;;;1999.90;999.90;;;5.10;99.90;;;;;;5070572;28;20036;-83
2023/12/12 01:49:13;;;;;;;;;;;5.10;99.90;;;;;;5071097;28;20120;-82
2023/12/12 01:51:39;;;;;;;1999.90;999.90;;;5.10;99.90;;;;;;5072755;28;20092;-86
2023/12/12 01:54:07;;;;;;;1999.90;999.90;;;5.00;99.90;;;;;;5072474;28;20047;-84
2023/12/12 01:56:34;;;;;;;1999.90;999.90;;;5.10;99.90;;;;;;5072256;28;20061;-84
2023/12/12 01:59:01;;;;;;;1999.90;999.90;;;5.10;99.90;;;;;;5070347;28;20028;-85
2023/12/12 02:01:27;;;;;;;1999.90;999.90;;;5.10;99.90;;;;;;5067844;28;20077;-85
2023/12/12 02:03:55;;;;;;;1999.90;999.90;;;5.00;99.90;;;;;;5055890;28;20398;-84
2023/12/12 02:06:22;;;;;;;1999.90;999.90;;;4.90;99.90;;;;;;5066591;28;20042;-84
2023/12/12 02:08:49;;;;;;;1999.90;999.90;;;4.90;99.90;;;;;;5070596;28;20106;-84
2023/12/12 02:11:15;;;;;;;1999.90;999.90;;;4.80;99.90;;;;;;5052554;28;20384;-83
2023/12/12 02:13:42;;;;;;;1999.90;999.90;;;4.90;99.90;;;;;;5074762;28;20032;-85
2023/12/12 02:16:08;;;;;;;1999.90;999.90;;;5.00;99.90;;;;;;5053275;28;20490;-83
2023/12/12 02:18:34;;;;;;;1999.90;999.90;;;4.90;99.90;;;;;;5072885;28;20020;-82
2023/12/12 02:21:01;;;;;;;1999.90;999.90;;;4.90;99.90;;;;;;5070516;28;20032;-82
2023/12/12 02:23:31;;;;;;;1999.90;999.90;;;4.90;99.90;;;;;;5070942;28;20044;-83
2023/12/12 02:25:57;;;;;;;1999.90;999.90;;;4.90;99.90;;;;;;5071877;28;20029;-82
2023/12/12 02:28:23;;;;;;;1999.90;999.90;;;5.00;99.90;;;;;;5073377;28;20024;-83
2023/12/12 02:30:49;;;;;;;1999.90;999.90;;;4.90;99.90;;;;;;5069780;28;20036;-83
2023/12/12 02:33:15;;;;;;;1999.90;999.90;;;4.90;99.90;;;;;;5067009;28;20087;-83
2023/12/12 02:35:41;;;;;;;1999.90;999.90;;;4.90;99.90;;;;;;5067287;28;20565;-82
2023/12/12 02:38:06;;;;;;;1999.90;999.90;;;5.00;99.90;;;;;;5068531;28;20401;-81
2023/12/12 02:40:32;;;;;;;1999.90;999.90;;;5.00;99.90;;;;;;5069983;28;21098;-84
2023/12/12 02:42:58;;;;;;;1999.90;999.90;;;5.00;99.90;;;;;;5066547;28;20047;-81
2023/12/12 02:45:24;;;;;;;1999.90;999.90;;;5.00;99.90;;;;;;5071303;28;20048;-86
2023/12/12 02:47:50;;;;;;;1999.90;999.90;;;5.10;99.90;;;;;;5072399;28;20032;-84
2023/12/12 02:50:15;;;;;;;1999.90;999.90;;;5.00;99.90;;;;;;5069194;28;20076;-80
2023/12/12 02:52:41;;;;;;;1999.90;999.90;;;5.00;99.90;;;;;;5069096;28;20056;-84
2023/12/12 02:55:08;;;;;;;1999.90;999.90;;;5.00;99.90;;;;;;5068952;28;20486;-82
2023/12/12 02:57:36;;;;;;;1999.90;999.90;;;5.00;99.90;;;;;;5066324;28;20046;-85
2023/12/12 03:00:06;;;;;;;1999.90;999.90;;;5.10;99.90;;;;;;5068815;28;20121;-82
2023/12/12 03:02:35;;;;;;;1999.90;999.90;;;5.10;99.90;;;;;;5070492;28;20059;-83
2023/12/12 03:05:01;;;;;;;1999.90;999.90;;;5.10;99.90;;;;;;5067457;28;20534;-85
2023/12/12 03:07:27;;;;;;;1999.90;999.90;;;5.10;99.90;;;;;;5099642;27;20037;-82
2023/12/12 03:09:53;;;;;;;1999.90;999.90;;;5.00;99.90;;;;;;5066825;28;20060;-81
2023/12/12 03:12:19;;;;;;;1999.90;999.90;;;5.10;99.90;;;;;;5069508;28;20075;-83
2023/12/12 03:14:44;;;;;;;1999.90;999.90;;;5.10;99.90;;;;;;5038055;28;20109;-84
2023/12/12 03:17:10;;;;;;;1999.90;999.90;;;5.00;99.90;;;;;;5070458;28;20111;-81
2023/12/12 03:19:36;;;;;;;1999.90;999.90;;;5.30;99.90;;;;;;5067270;28;20458;-81
2023/12/12 03:22:01;;;;;;;1999.90;999.90;;;5.30;99.90;;;;;;5067137;28;20428;-85
2023/12/12 03:24:27;;;;;;;1999.90;999.90;;;5.30;99.90;;;;;;5069042;28;20600;-83
2023/12/12 03:26:53;;;;;;;1999.90;999.90;;;5.40;99.90;;;;;;5067241;28;20025;-85
2023/12/12 03:29:19;;;;;;;1999.90;999.90;;;5.30;99.90;;;;;;5066334;28;20036;-83
2023/12/12 03:31:45;;;;;;;1999.90;999.90;;;5.50;99.90;;;;;;5051045;28;20170;-84
2023/12/12 03:34:11;;;;;;;1999.90;999.90;;;5.50;99.90;;;;;;5072721;28;20309;-85
2023/12/12 03:36:46;;;;;;;1999.90;999.90;;;5.50;99.90;;;;;;5069587;28;20555;-84
2023/12/12 03:39:12;;;;;;;1999.90;999.90;;;5.60;99.90;;;;;;5067877;28;20728;-85
2023/12/12 03:41:39;;;;;;;1999.90;999.90;;;5.60;99.90;;;;;;5068538;28;20024;-82
2023/12/12 03:44:06;;;;;;;1999.90;999.90;;;5.60;99.80;;;;;;5068407;28;20134;-83
2023/12/12 03:46:32;;;;;;;1999.90;999.90;;;5.60;99.90;;;;;;5064059;28;20549;-83
2023/12/12 03:48:58;;;;;;;1999.90;999.90;;;5.60;99.90;;;;;;5082324;28;20032;-83
2023/12/12 03:51:24;;;;;;;1999.90;999.90;;;5.70;99.90;;;;;;5050129;28;20485;-85
2023/12/12 03:53:50;;;;;;;1999.90;999.90;;;5.70;99.80;;;;;;5068614;28;20134;-82
2023/12/12 03:56:17;;;;;;;1999.90;999.90;;;5.70;99.80;;;;;;5050809;28;20032;-83
2023/12/12 03:58:42;;;;;;;1999.90;999.90;;;5.70;99.60;;;;;;5069436;28;20148;-83
2023/12/12 04:01:08;;;;;;;1999.90;999.90;;;5.80;99.60;;;;;;5070062;28;20021;-83
2023/12/12 04:03:35;;;;;;;1999.90;999.90;;;5.80;99.60;;;;;;5064148;28;20059;-85
2023/12/12 04:06:07;;;;;;;1999.90;999.90;;;5.70;99.50;;;;;;5064829;28;20115;-84
2023/12/12 04:08:33;;;;;;;1999.90;999.90;;;5.80;99.50;;;;;;5069490;28;20079;-85
2023/12/12 04:10:59;;;;;;;1999.90;999.90;;;5.80;99.50;;;;;;5068032;28;20490;-80
2023/12/12 04:13:25;;;;;;;1999.90;999.90;;;5.90;99.40;;;;;;5070286;28;20032;-85
2023/12/12 04:15:51;;;;;;;1999.90;999.90;;;5.90;99.40;;;;;;5069449;28;20033;-82
2023/12/12 04:18:18;;;;;;;1999.90;999.90;;;5.90;99.20;;;;;;5051505;28;20024;-81
2023/12/12 04:20:44;;;;;;;1999.90;999.90;;;5.90;99.10;;;;;;5067549;28;20430;-84
2023/12/12 04:23:13;;;;;;;1999.90;999.90;;;5.80;99.10;;;;;;5066107;28;20039;-83
2023/12/12 04:25:39;;;;;;;1999.90;999.90;;;5.80;99.20;;;;;;5063322;28;20035;-84
2023/12/12 04:28:05;;;;;;;1999.90;999.90;;;5.80;99.20;;;;;;5046960;28;20036;-85
2023/12/12 04:30:30;;;;;;;1999.90;999.90;;;5.80;99.10;;;;;;5069681;28;20108;-84
2023/12/12 04:32:56;;;;;;;1999.90;999.90;;;5.80;99.10;;;;;;5067492;28;20040;-84
2023/12/12 04:35:24;;;;;;;1999.90;999.90;;;5.80;99.10;;;;;;5065268;28;20342;-84
2023/12/12 04:37:50;;;;;;;1999.90;999.90;;;5.80;99.10;;;;;;5072239;28;20430;-84
2023/12/12 04:40:16;;;;;;;1999.90;999.90;;;5.80;99.00;;;;;;5070066;28;20044;-83
2023/12/12 04:42:42;;;;;;;1999.90;999.90;;;5.80;99.10;;;;;;5071793;28;20035;-85
2023/12/12 04:45:08;;;;;;;1999.90;999.90;;;5.80;99.10;;;;;;5068925;28;20756;-84
2023/12/12 04:47:34;;;;;;;1999.90;999.90;;;5.80;99.20;;;;;;5070780;28;20040;-84
2023/12/12 04:49:59;;;;;;;1999.90;999.90;;;5.90;99.00;;;;;;5071349;28;20039;-81
2023/12/12 04:52:25;;;;;;;1999.90;999.90;;;5.90;99.10;;;;;;5068264;28;20048;-83
2023/12/12 04:54:53;;;;;;;1999.90;999.90;;;5.90;99.00;;;;;;5100150;27;20092;-83
2023/12/12 04:57:19;;;;;;;1999.90;999.90;;;5.90;99.00;;;;;;5069828;28;20082;-84
2023/12/12 04:59:45;;;;;;;1999.90;999.90;;;5.90;99.00;;;;;;5071578;28;20044;-83
2023/12/12 05:02:10;;;;;;;1999.90;999.90;;;5.90;99.00;;;;;;5073422;28;20055;-84
2023/12/12 05:04:37;;;;;;;1999.90;999.90;;;5.90;98.90;;;;;;5069993;28;20129;-81
2023/12/12 05:07:04;;;;;;;1999.90;999.90;;;5.90;98.90;;;;;;5069786;28;20036;-86
2023/12/12 05:09:29;;;;;;;1999.90;999.90;;;6.00;98.90;;;;;;5070410;28;20028;-84
2023/12/12 05:11:58;;;;;;;1999.90;999.90;;;5.90;98.90;;;;;;5070966;28;20537;-84
2023/12/12 05:14:23;;;;;;;1999.90;999.90;;;5.90;98.90;;;;;;5066382;28;20033;-87
2023/12/12 05:16:49;;;;;;;1999.90;999.90;;;5.80;98.90;;;;;;5086851;28;20083;-89
2023/12/12 05:19:15;;;;;;;1999.90;999.90;;;5.80;99.40;;;;;;5070168;28;20235;-89
2023/12/12 05:21:40;;;;;;;1999.90;999.90;;;5.90;99.40;;;;;;5073056;28;20130;-87
2023/12/12 05:24:06;;;;;;;1999.90;999.90;;;5.90;99.50;;;;;;5072504;28;20028;-88
2023/12/12 05:26:32;;;;;;;1999.90;999.90;;;5.80;99.60;;;;;;5101183;27;20437;-89
2023/12/12 05:28:58;;;;;;;1999.90;999.90;;;5.90;99.80;;;;;;5069721;28;20036;-89
2023/12/12 05:31:24;;;;;;;1999.90;999.90;;;5.90;99.90;;;;;;5066784;28;20028;-89
2023/12/12 05:33:49;;;;;;;1999.90;999.90;;;5.90;99.90;;;;;;5069996;28;20051;-89
2023/12/12 05:36:15;;;;;;;1999.90;999.90;;;5.90;99.90;;;;;;5070778;28;20044;-89
2023/12/12 05:38:41;;;;;;;1999.90;999.90;;;5.90;99.90;;;;;;5099138;27;20048;-84
2023/12/12 05:41:06;;;;;;;1999.90;999.90;;;6.00;99.90;;;;;;5067127;28;20119;-81
2023/12/12 05:43:32;;;;;;;1999.90;999.90;;;6.00;99.90;;;;;;5065704;28;20411;-87
2023/12/12 05:45:58;;;;;;;1999.90;999.90;;;6.00;99.90;;;;;;5075215;28;20032;-87
2023/12/12 05:48:24;;;;;;;1999.90;999.90;;;6.00;99.90;;;;;;5067525;28;20028;-86
2023/12/12 05:50:52;;;;;;;1999.90;999.90;;;6.00;99.90;;;;;;5067654;28;20108;-88
2023/12/12 05:53:20;;;;;;;1999.90;999.90;;;6.00;99.90;;;;;;5065171;28;20098;-87
2023/12/12 05:55:45;;;;;;;1999.90;999.90;;;6.00;99.90;;;;;;5068229;28;20028;-87
2023/12/12 05:58:11;;;;;;;1999.90;999.90;;;6.00;99.90;;;;;;5068692;28;20031;-86
2023/12/12 06:00:40;;;;;;;1999.90;999.90;;;6.10;99.90;;;;;;5069939;28;20032;-89
2023/12/12 06:03:08;;;;;;;1999.90;999.90;;;6.10;99.90;;;;;;5063303;28;20048;-87
2023/12/12 06:05:33;;;;;;;1999.90;999.90;;;6.10;99.90;;;;;;5066867;28;20025;-87
2023/12/12 06:07:59;;;;;;;1999.90;999.90;;;6.10;99.90;;;;;;5097808;27;20047;-87
2023/12/12 06:10:25;;;;;;;1999.90;999.90;;;6.10;99.90;;;;;;5070296;28;20032;-87
2023/12/12 06:12:50;;;;;;;1999.90;999.90;;;6.10;99.90;;;;;;5068724;28;20062;-87
2023/12/12 06:15:16;;;;;;;1999.90;999.90;;;6.10;99.90;;;;;;5062480;28;20066;-87
2023/12/12 06:17:42;;;;;;;1999.90;999.90;;;6.20;99.90;;;;;;5066749;28;20098;-86
2023/12/12 06:20:08;;;;;;;1999.90;999.90;;;6.20;99.90;;;;;;5049880;28;20123;-83
2023/12/12 06:22:34;;;;;;;1999.90;999.90;;;6.10;99.90;;;;;;5066145;28;20055;-87
2023/12/12 06:25:01;;;;;;;1999.90;999.90;;;6.20;99.90;;;;;;5069445;28;20029;-80
2023/12/12 06:27:27;;;;;;;1999.90;999.90;;;6.20;99.90;;;;;;5067629;28;20036;-80
2023/12/12 06:29:53;;;;;;;1999.90;999.90;;;6.20;99.90;;;;;;5068576;28;20033;-80
2023/12/12 06:32:19;;;;;;;1999.90;999.90;;;6.20;99.90;;;;;;5068870;28;20033;-81
2023/12/12 06:34:45;;;;;;;1999.90;999.90;;;6.10;99.90;;;;;;5065969;28;20028;-82
2023/12/12 06:37:11;;;;;;;1999.90;999.90;;;6.10;99.90;;;;;;5067418;28;20640;-83
2023/12/12 06:39:38;;;;;;;1999.90;999.90;;;6.20;99.90;;;;;;5063707;28;20043;-82
2023/12/12 06:42:06;;;;;;;1999.90;999.90;;;6.20;99.90;;;;;;5069582;28;20021;-82
2023/12/12 06:44:32;;;;;;;1999.90;999.90;;;6.30;99.90;;;;;;5069186;28;20430;-79
2023/12/12 06:46:58;;;;;;;1999.90;999.90;;;6.40;99.90;;;;;;5067758;28;20024;-79
2023/12/12 06:49:23;;;;;;;1999.90;999.90;;;6.40;99.90;;;;;;5060313;28;20603;-82
2023/12/12 06:51:49;;;;;;;1999.90;999.90;;;6.40;99.90;;;;;;5061766;28;20025;-80
2023/12/12 06:54:15;;;;;;;1999.90;999.90;;;6.40;99.90;;;;;;5063638;28;20020;-82
2023/12/12 06:56:42;;;;;;;1999.90;999.90;;;6.40;99.90;;;;;;5066606;28;20113;-81
2023/12/12 06:59:08;;;;;;;1999.90;999.90;;;6.40;99.90;;;;;;5064604;28;20025;-79
2023/12/12 07:01:34;;;;;;;1999.90;999.90;;;6.40;99.90;;;;;;5060713;28;20108;-86
2023/12/12 07:04:00;;;;;;;1999.90;999.90;;;6.40;99.90;;;;;;5061534;28;20124;-85
2023/12/12 07:06:25;;;;;;;1999.90;999.90;;;6.50;99.90;;;;;;5061901;28;20041;-84
2023/12/12 07:08:52;;;;;;;1999.90;999.90;;;6.50;99.90;;;;;;5063368;28;20036;-85
2023/12/12 07:11:17;;;;;;;1999.90;999.90;;;6.50;99.90;;;;;;5083786;28;20032;-85
2023/12/12 07:13:43;;;;;;;1999.90;999.90;;;6.50;99.90;;;;;;5067480;28;20025;-84
2023/12/12 07:16:11;;;;;;;1999.90;999.90;;;6.50;99.90;;;;;;5065299;28;20040;-85
2023/12/12 07:18:38;;;;;;;1999.90;999.90;;;6.50;99.90;;;;;;5066329;28;20028;-86
2023/12/12 07:21:05;;;;;;;1999.90;999.90;;;6.50;99.90;;;;;;5066855;28;20036;-85
2023/12/12 07:23:31;;;;;;;1999.90;999.90;;;6.50;99.90;;;;;;5067803;28;20048;-86
2023/12/12 07:25:59;;;;;;;1999.90;999.90;;;6.50;99.90;;;;;;5065625;28;20537;-84
2023/12/12 07:28:25;;;;;;;1999.90;999.90;;;6.60;99.90;;;;;;5069140;28;20567;-82
2023/12/12 07:30:53;;;;;;;1999.90;999.90;;;6.50;99.90;;;;;;5067406;28;20032;-86
2023/12/12 07:33:19;;;;;;;1999.90;999.90;;;6.50;99.90;;;;;;5050101;28;20808;-81
2023/12/12 07:35:44;;;;;;;1999.90;999.90;;;6.50;99.90;;;;;;5070660;28;20385;-83
2023/12/12 07:38:10;;;;;;;1999.90;999.90;;;6.50;99.90;;;;;;5064062;28;20054;-84
2023/12/12 07:40:36;;;;;;;1999.90;999.90;;;6.60;99.90;;;;;;5068279;28;20068;-87
2023/12/12 07:43:02;;;;;;;1999.90;999.90;;;6.60;99.90;;;;;;5052501;28;20399;-85
2023/12/12 07:45:27;;;;;;;1999.90;999.90;;;6.60;99.90;;;;;;5070194;28;20040;-87
2023/12/12 07:47:53;;;;;;;1999.90;999.90;;;6.60;99.90;;;;;;5064367;28;20039;-86
2023/12/12 07:50:20;;;;;;;1999.90;999.90;;;6.70;99.90;;;;;;5065604;28;20043;-85
2023/12/12 07:52:47;;;;;;;1999.90;999.90;;;6.60;99.90;;;;;;5052362;28;20052;-82
2023/12/12 07:55:13;;;;;;;1999.90;999.90;;;6.60;99.90;;;;;;5065854;28;20083;-85
2023/12/12 07:57:38;;;;;;;1999.90;999.90;;;6.60;99.90;;;;;;5065430;28;20067;-83
2023/12/12 08:00:06;;;;;;;1999.90;999.90;;;6.60;99.90;;;;;;5067474;28;20074;-78
2023/12/12 08:02:33;;;;;;;1999.90;999.90;;;6.70;99.90;;;;;;5066817;28;20041;-85
2023/12/12 08:04:59;;;;;;;1999.90;999.90;;;6.60;99.90;;;;;;5069303;28;20067;-85
2023/12/12 08:07:25;;;;;;;1999.90;999.90;;;6.70;99.90;;;;;;5065319;28;20025;-84
2023/12/12 08:09:51;;;;;;;1999.90;999.90;;;6.70;99.90;;;;;;5070441;28;20140;-84
2023/12/12 08:12:17;;;;;;;1999.90;999.90;;;6.70;99.90;;;;;;5052959;28;20112;-82
2023/12/12 08:14:42;;;;;;;1999.90;999.90;;;6.70;99.90;;;;;;5067037;28;20035;-83
2023/12/12 08:17:08;;;;;;;1999.90;999.90;;;6.70;99.90;;;;;;5069022;28;20586;-82
2023/12/12 08:19:34;;;;;;;1999.90;999.90;;;6.70;99.90;;;;;;5063932;28;20036;-84
2023/12/12 08:22:01;;;;;;;1999.90;999.90;;;6.70;99.90;;;;;;5066916;28;20033;-88
2023/12/12 08:24:27;;;;;;;1999.90;999.90;;;6.70;99.90;;;;;;5067762;28;20091;-89
2023/12/12 08:26:54;;;;;;;1999.90;999.90;;;6.70;99.90;;;;;;5067401;28;20036;-89
2023/12/12 08:29:20;;;;;;;1999.90;999.90;;;6.80;99.90;;;;;;5063568;28;20127;-89
2023/12/12 08:31:46;;;;;;;1999.90;999.90;;;6.80;99.90;;;;;;5068312;28;20116;-88
2023/12/12 08:34:11;;;;;;;1999.90;999.90;;;6.70;99.90;;;;;;5067071;28;20037;-89
2023/12/12 08:36:37;;;;;;;1999.90;999.90;;;7.10;99.90;;;;;;5068418;28;20040;-89
2023/12/12 08:39:03;;;;;;;1999.90;999.90;;;8.10;99.90;;;;;;5065608;28;20031;-87
2023/12/12 08:41:30;;;;;;;1999.90;999.90;;;8.60;99.90;;;;;;5049749;28;20029;-87
2023/12/12 08:43:59;;;;;;;1999.90;999.90;;;8.70;99.90;;;;;;5070517;28;20040;-85
2023/12/12 08:46:26;;;;;;;1999.90;999.90;;;8.80;99.90;;;;;;5065361;28;20039;-81
2023/12/12 08:48:56;;;;;;;1999.90;999.90;;;8.60;99.90;;;;;;5065678;28;20029;-76
2023/12/12 08:51:26;;;;;;;1999.90;999.90;;;8.70;99.90;;;;;;5065918;28;20697;-81
2023/12/12 08:53:52;;;;;;;1999.90;999.90;;;8.60;99.90;;;;;;5070520;28;20728;-79
2023/12/12 08:56:18;;;;;;;1999.90;999.90;;;8.70;99.90;;;;;;5065370;28;20059;-82
2023/12/12 08:58:45;;;;;;;1999.90;999.90;;;8.80;99.90;;;;;;5070032;28;20033;-82
2023/12/12 09:01:11;;;;;;;1999.90;999.90;;;8.70;99.90;;;;;;5067505;28;20486;-81
2023/12/12 09:03:37;;;;;;;1999.90;999.90;;;8.70;99.90;;;;;;5065987;28;20032;-82
2023/12/12 09:06:03;;;;;;;1999.90;999.90;;;8.80;99.90;;;;;;5064669;28;20043;-83
2023/12/12 09:08:29;;;;;;;1999.90;999.90;;;8.90;99.90;;;;;;5065060;28;20103;-80
2023/12/12 09:10:58;;;;;;;1999.90;999.90;;;8.90;99.90;;;;;;5070208;28;20460;-82
2023/12/12 09:13:25;;;;;;;1999.90;999.90;;;8.90;99.90;;;;;;5072155;28;20107;-80
2023/12/12 09:15:50;;;;;;;1999.90;999.90;;;8.90;99.90;;;;;;5102330;28;20768;-81
2023/12/12 09:18:16;;;;;;;1999.90;999.90;;;9.00;99.90;;;;;;5068688;28;20106;-82
2023/12/12 09:20:42;;;;;;;1999.90;999.90;;;9.00;99.90;;;;;;5067273;28;20036;-82
2023/12/12 09:23:07;;;;;;;1999.90;999.90;;;9.00;99.90;;;;;;5053314;28;20028;-79
2023/12/12 09:25:33;;;;;;;1999.90;999.90;;;9.00;99.90;;;;;;5072772;28;20040;-79
2023/12/12 09:27:59;;;;;;;1999.90;999.90;;;8.80;99.90;;;;;;5054500;28;20036;-79
2023/12/12 09:30:24;;;;;;;1999.90;999.90;;;8.90;99.90;;;;;;5074029;28;20036;-82
2023/12/12 09:32:50;;;;;;;1999.90;999.90;;;8.80;99.90;;;;;;5071115;28;20039;-80
2023/12/12 09:35:16;;;;;;;1999.90;999.90;;;8.80;99.90;;;;;;5071832;28;20083;-81
2023/12/12 09:37:42;;;;;;;1999.90;999.90;;;8.80;99.90;;;;;;5074749;28;20028;-79
2023/12/12 09:40:09;;;;;;;1999.90;999.90;;;8.80;99.90;;;;;;5069302;28;20040;-81
2023/12/12 09:42:35;;;;;;;1999.90;999.90;;;8.80;99.90;;;;;;5070919;28;20474;-81
2023/12/12 09:45:04;;;;;;;1999.90;999.90;;;8.90;99.90;;;;;;5070549;28;20094;-80
2023/12/12 09:47:33;;;;;;;1999.90;999.90;;;8.80;99.90;;;;;;5071970;28;20032;-83
2023/12/12 09:49:59;;;;;;;1999.90;999.90;;;8.70;99.90;;;;;;5067879;28;20033;-81
2023/12/12 09:52:28;;;;;;;1999.90;999.90;;;8.80;99.90;;;;;;5071180;28;20118;-84
2023/12/12 09:54:56;;;;;;;1999.90;999.90;;;8.90;99.90;;;;;;5100200;27;20394;-77
2023/12/12 09:57:22;;;;;;;1999.90;999.90;;;8.70;99.90;;;;;;5068885;28;20734;-77
2023/12/12 09:59:47;;;;;;;1999.90;999.90;;;8.70;99.90;;;;;;5066546;28;20089;-77
2023/12/12 10:02:23;;;;;;;1999.90;999.90;;;8.60;99.90;;;;;;5052443;28;20037;-78
2023/12/12 10:04:52;;;;;;;1999.90;999.90;;;8.60;99.90;;;;;;5073949;28;20016;-77
2023/12/12 10:07:19;;;;;;;1999.90;999.90;;;8.40;99.90;;;;;;5068996;28;20735;-77
2023/12/12 10:09:46;;;;;;;1999.90;999.90;;;8.30;99.90;;;;;;5071990;28;20024;-78
2023/12/12 10:12:12;;;;;;;1999.90;999.90;;;7.90;99.90;;;;;;5069643;28;20017;-77
2023/12/12 10:14:40;;;;;;;1999.90;999.90;;;7.70;99.90;;;;;;5070812;28;20039;-78
2023/12/12 10:17:10;;;;;;;1999.90;999.90;;;7.70;99.90;;;;;;5068780;28;20114;-76
2023/12/12 10:19:39;;;;;;;1999.90;999.90;;;7.50;99.90;;;;;;5067487;28;20539;-77
2023/12/12 10:22:11;;;;;;;1999.90;999.90;;;7.60;99.90;;;;;;5069091;28;20035;-72
2023/12/12 10:24:37;;;;;;;1999.90;999.90;;;7.60;99.90;;;;;;5071146;28;20161;-77
2023/12/12 10:27:04;;;;;;;1999.90;999.90;;;7.50;99.90;;;;;;5070043;28;20103;-77
2023/12/12 10:29:33;;;;;;;1999.90;999.90;;;7.40;99.90;;;;;;5070736;28;20047;-77
2023/12/12 10:31:59;;;;;;;1999.90;999.90;;;7.40;99.90;;;;;;5065923;28;20060;-76
2023/12/12 10:34:27;;;;;;;1999.90;999.90;;;7.40;99.90;;;;;;5070946;28;20033;-76
2023/12/12 10:36:54;;;;;;;1999.90;999.90;;;7.40;99.90;;;;;;5068031;28;20506;-77
2023/12/12 10:39:19;;;;;;;1999.90;999.90;;;7.30;99.90;;;;;;5071399;28;20032;-76
2023/12/12 10:41:55;;;;;;;1999.90;999.90;;;7.50;99.90;;;;;;5067226;28;20070;-76
2023/12/12 10:44:32;;;;;;;1999.90;999.90;;;7.60;99.90;;;;;;5067909;28;20509;-76
2023/12/12 10:47:01;;;;;;;1999.90;999.90;;;7.50;99.90;;;;;;5070394;28;20093;-77
2023/12/12 10:49:31;;;;;;;1999.90;999.90;;;7.60;99.90;;;;;;5065489;28;20454;-77
2023/12/12 10:52:08;;;;;;;1999.90;999.90;;;7.60;99.90;;;;;;5068550;28;20024;-79
2023/12/12 10:54:35;;;;;;;1999.90;999.90;;;7.60;99.90;;;;;;5066542;28;20052;-79
2023/12/12 10:57:02;;;;;;;1999.90;999.90;;;7.60;99.90;;;;;;5072694;28;20107;-81
2023/12/12 10:59:29;;;;;;;1999.90;999.90;;;7.60;99.90;;;;;;5067960;28;20047;-81
2023/12/12 11:01:57;;;;;;;1999.90;999.90;;;7.60;99.90;;;;;;5066214;28;20709;-79
2023/12/12 11:04:24;;;;;;;1999.90;999.90;;;7.70;99.90;;;;;;5068649;28;20040;-81
2023/12/12 11:06:51;;;;;;;1999.90;999.90;;;7.60;99.90;;;;;;5071510;28;20028;-79
2023/12/12 11:09:18;;;;;;;1999.90;999.90;;;7.80;99.90;;;;;;5068737;28;20037;-79
2023/12/12 11:11:49;;;;;;;1999.90;999.90;;;7.90;99.90;;;;;;5068821;28;21025;-79
2023/12/12 11:14:16;;;;;;;1999.90;999.90;;;7.90;99.90;;;;;;5070077;28;20078;-81
2023/12/12 11:16:47;;;;;;;1999.90;999.90;;;8.00;99.90;;;;;;5066101;28;20028;-85
2023/12/12 11:19:16;;;;;;;;;;;8.00;99.90;;;;;;5070022;28;20021;-83
2023/12/12 11:21:42;;;;;;;1999.90;999.90;;;8.10;99.90;;;;;;5067130;28;20030;-80
2023/12/12 11:24:08;;;;;;;1999.90;999.90;;;8.20;99.90;;;;;;5066855;28;20495;-81
2023/12/12 11:26:36;;;;;;;1999.90;999.90;;;8.30;99.90;;;;;;5063694;28;20039;-79
2023/12/12 11:29:05;;;;;;;1999.90;999.90;;;8.40;99.90;;;;;;5062711;28;20122;-80
2023/12/12 11:31:34;;;;;;;1999.90;999.90;;;8.50;99.90;;;;;;5067091;28;20394;-81
2023/12/12 11:34:08;;;;;;;1999.90;999.90;;;8.50;99.90;;;;;;5067806;28;20054;-80
2023/12/12 11:36:57;;;;;;;1999.90;999.90;;;8.40;99.90;;;;;;5066214;28;20056;-82
2023/12/12 11:39:36;;;;;;;1999.90;999.90;;;8.30;99.90;;;;;;5068276;28;20020;-78
2023/12/12 11:42:03;;;;;;;1999.90;999.90;;;8.30;99.90;;;;;;5067130;28;20029;-82
2023/12/12 11:44:45;;;;;;;1999.90;999.90;;;8.20;99.90;;;;;;5066244;28;20040;-79
2023/12/12 11:47:15;;;;;;;1999.90;999.90;;;8.30;99.90;;;;;;5072728;28;20033;-81
2023/12/12 11:49:43;;;;;;;1999.90;999.90;;;8.00;99.90;;;;;;5069193;28;20486;-79
2023/12/12 11:52:09;;;;;;;1999.90;999.90;;;8.10;99.90;;;;;;5069299;28;20178;-79
2023/12/12 11:54:35;;;;;;;1999.90;999.90;;;8.20;99.90;;;;;;5072964;28;20111;-84
2023/12/12 11:57:02;;;;;;;1999.90;999.90;;;8.30;99.90;;;;;;5075482;28;20478;-79
2023/12/12 11:59:29;;;;;;;1999.90;999.90;;;8.20;99.90;;;;;;5071348;28;20073;-82
2023/12/12 12:01:55;;;;;;;1999.90;999.90;;;8.10;99.90;;;;;;5072617;28;20033;-80
2023/12/12 12:04:22;;;;;;;1999.90;999.90;;;8.10;99.90;;;;;;5068129;28;20047;-76
2023/12/12 12:06:52;;;;;;;1999.90;999.90;;;8.00;99.90;;;;;;5069049;28;20024;-78